Time;durP1;ratioP1;P1;durP2;ratioP2;P2;SDS_P1;SDS_P2;PMS_P1;PMS_P2;Temp;Humidity;BMP_temperature;BMP_pressure;BME280_temperature;BME280_humidity;BME280_pressure;Samples;Min_cycle;Max_cycle;Signal;HPM_P1;HPM_P2
2023/02/14 05:01:52;;;;;;;11.82;6.07;;;5.70;99.90;;;;;;5266169;23;20278;-68
2023/02/14 05:04:18;;;;;;;7.28;4.03;;;5.70;99.90;;;;;;4929709;29;20211;-68
2023/02/14 05:06:45;;;;;;;15.00;7.85;;;5.70;99.90;;;;;;4929874;29;20223;-68
2023/02/14 05:09:12;;;;;;;12.18;6.40;;;5.70;99.90;;;;;;4931887;29;20211;-69
2023/02/14 05:11:38;;;;;;;11.85;7.35;;;5.70;99.90;;;;;;4931461;29;20232;-68
2023/02/14 05:14:05;;;;;;;21.10;8.43;;;5.70;99.90;;;;;;4916311;29;20519;-68
2023/02/14 05:16:32;;;;;;;10.15;8.35;;;5.70;99.90;;;;;;4912481;29;20212;-69
2023/02/14 05:19:00;;;;;;;15.43;8.63;;;5.70;99.90;;;;;;4915736;29;20216;-69
2023/02/14 05:21:27;;;;;;;14.25;6.60;;;5.70;99.90;;;;;;4916709;29;20234;-69
2023/02/14 05:23:54;;;;;;;16.95;7.55;;;5.60;99.90;;;;;;4916025;29;20258;-68
2023/02/14 05:26:20;;;;;;;9.30;8.63;;;5.70;99.90;;;;;;4918794;29;20211;-68
2023/02/14 05:28:47;;;;;;;9.07;5.82;;;5.60;99.90;;;;;;4922375;29;20550;-68
2023/02/14 05:31:14;;;;;;;15.75;7.43;;;5.60;99.90;;;;;;4918300;29;20322;-70
2023/02/14 05:33:41;;;;;;;10.40;6.68;;;5.60;99.90;;;;;;4917271;29;20647;-68
2023/02/14 05:36:09;;;;;;;17.80;6.20;;;5.60;99.90;;;;;;4911674;29;20216;-68
2023/02/14 05:38:36;;;;;;;15.50;8.70;;;5.60;99.90;;;;;;4912587;29;20700;-68
2023/02/14 05:41:03;;;;;;;12.07;6.50;;;5.60;99.90;;;;;;4919502;29;20246;-69
2023/02/14 05:43:30;;;;;;;14.98;10.82;;;5.60;99.90;;;;;;4921255;29;20207;-68
2023/02/14 05:45:56;;;;;;;12.43;9.45;;;5.70;99.90;;;;;;4930212;29;20234;-69
2023/02/14 05:48:23;;;;;;;8.00;5.47;;;5.70;99.90;;;;;;4923971;29;20966;-69
2023/02/14 05:50:50;;;;;;;11.27;7.43;;;5.70;99.90;;;;;;4926330;29;20235;-68
2023/02/14 05:53:18;;;;;;;10.57;5.78;;;5.70;99.90;;;;;;4926345;29;20204;-68
2023/02/14 05:55:45;;;;;;;11.55;5.50;;;5.70;99.90;;;;;;4920025;29;20207;-68
2023/02/14 05:58:12;;;;;;;17.98;7.53;;;5.70;99.90;;;;;;4913136;29;20204;-68
2023/02/14 06:00:38;;;;;;;5.28;4.78;;;5.70;99.90;;;;;;4914363;29;20322;-69
2023/02/14 06:03:05;;;;;;;10.68;7.05;;;5.70;99.90;;;;;;4914300;29;20231;-69
2023/02/14 06:05:32;;;;;;;21.23;9.60;;;5.70;99.90;;;;;;4920486;29;20307;-69
2023/02/14 06:08:00;;;;;;;12.13;7.20;;;5.60;99.90;;;;;;4914682;29;20219;-69
2023/02/14 06:10:28;;;;;;;29.63;9.68;;;5.60;99.90;;;;;;4915829;29;20251;-69
2023/02/14 06:12:55;;;;;;;11.05;7.07;;;5.60;99.90;;;;;;4920090;29;20219;-70
2023/02/14 06:15:22;;;;;;;9.10;5.20;;;5.60;99.90;;;;;;4927249;29;20211;-69
2023/02/14 06:17:52;;;;;;;17.67;6.30;;;5.60;99.90;;;;;;4914048;29;20219;-70
2023/02/14 06:20:19;;;;;;;13.00;6.25;;;5.60;99.90;;;;;;4922329;29;20880;-68
2023/02/14 06:22:45;;;;;;;13.00;6.00;;;5.60;99.90;;;;;;4922643;29;20656;-68
2023/02/14 06:25:12;;;;;;;13.70;7.32;;;5.60;99.90;;;;;;4918031;29;20219;-68
2023/02/14 06:27:40;;;;;;;13.02;8.00;;;5.60;99.90;;;;;;4913577;29;20217;-68
2023/02/14 06:30:08;;;;;;;9.48;7.80;;;5.60;99.90;;;;;;4917074;29;20208;-68
2023/02/14 06:32:35;;;;;;;9.43;7.93;;;5.70;99.90;;;;;;4914968;29;20230;-68
2023/02/14 06:35:02;;;;;;;12.88;8.35;;;5.60;99.90;;;;;;4911127;29;20218;-69
2023/02/14 06:37:29;;;;;;;8.73;6.30;;;5.70;99.90;;;;;;4911742;29;20214;-70
2023/02/14 06:39:55;;;;;;;20.48;8.88;;;5.70;99.90;;;;;;4915462;29;20223;-69
2023/02/14 06:42:22;;;;;;;12.77;9.43;;;5.60;99.90;;;;;;4914825;29;20231;-68
2023/02/14 06:44:50;;;;;;;17.88;9.70;;;5.60;99.90;;;;;;4914655;29;20697;-68
2023/02/14 06:47:17;;;;;;;13.75;9.38;;;5.60;99.90;;;;;;4926514;29;20581;-69
2023/02/14 06:49:44;;;;;;;19.02;7.80;;;5.70;99.90;;;;;;4925407;29;20216;-70
2023/02/14 06:52:10;;;;;;;13.25;7.55;;;5.70;99.90;;;;;;4918568;29;20227;-69
2023/02/14 06:54:37;;;;;;;20.58;8.57;;;5.70;99.90;;;;;;4918478;29;20208;-70
2023/02/14 06:57:04;;;;;;;12.95;9.40;;;5.70;99.90;;;;;;4922759;29;20230;-70
2023/02/14 06:59:31;;;;;;;8.63;7.78;;;5.70;99.90;;;;;;4918131;29;20410;-70
2023/02/14 07:01:59;;;;;;;11.32;6.80;;;5.70;99.90;;;;;;4917379;29;20238;-69
2023/02/14 07:04:25;;;;;;;21.35;8.85;;;5.70;99.90;;;;;;4936858;29;20232;-69
2023/02/14 07:06:52;;;;;;;15.35;10.30;;;5.60;99.90;;;;;;4934654;29;20216;-70
2023/02/14 07:09:19;;;;;;;13.18;7.10;;;5.60;99.90;;;;;;4926581;29;20212;-69
2023/02/14 07:11:46;;;;;;;16.70;7.50;;;5.60;99.90;;;;;;4918804;29;20253;-69
2023/02/14 07:14:13;;;;;;;18.00;7.93;;;5.60;99.90;;;;;;4926733;29;20203;-69
2023/02/14 07:16:40;;;;;;;17.90;8.90;;;5.60;99.90;;;;;;4914712;29;20223;-70
2023/02/14 07:19:08;;;;;;;11.32;6.75;;;5.60;99.90;;;;;;4926912;29;20211;-70
2023/02/14 07:21:35;;;;;;;10.30;7.05;;;5.50;99.90;;;;;;4919461;29;20321;-70
2023/02/14 07:24:01;;;;;;;9.77;5.85;;;5.50;99.90;;;;;;4914169;29;20211;-69
2023/02/14 07:26:28;;;;;;;10.93;6.47;;;5.50;99.90;;;;;;4917644;29;20212;-69
2023/02/14 07:28:55;;;;;;;12.68;7.03;;;5.50;99.90;;;;;;4914325;29;20282;-69
2023/02/14 07:31:22;;;;;;;27.52;10.10;;;5.50;99.90;;;;;;4912659;29;20247;-69
2023/02/14 07:33:49;;;;;;;13.80;9.05;;;5.50;99.90;;;;;;4914548;29;20702;-70
2023/02/14 07:36:17;;;;;;;14.63;8.68;;;5.60;99.90;;;;;;4925199;29;20312;-70
2023/02/14 07:38:44;;;;;;;7.10;5.63;;;5.50;99.90;;;;;;4929716;29;20223;-69
2023/02/14 07:41:10;;;;;;;14.15;7.40;;;5.50;99.90;;;;;;4929475;29;20228;-69
2023/02/14 07:43:38;;;;;;;8.25;7.00;;;5.50;99.90;;;;;;4914296;29;20252;-69
2023/02/14 07:46:05;;;;;;;20.90;9.65;;;5.50;99.90;;;;;;4928168;29;20303;-70
2023/02/14 07:48:32;;;;;;;10.68;3.53;;;5.60;99.90;;;;;;4926645;29;20664;-68
2023/02/14 07:50:59;;;;;;;24.70;9.98;;;5.60;99.90;;;;;;4928086;29;20252;-68
2023/02/14 07:53:27;;;;;;;11.75;6.78;;;5.60;99.90;;;;;;4926629;29;20662;-69
2023/02/14 07:55:54;;;;;;;14.90;5.93;;;5.60;99.90;;;;;;4923005;29;20219;-69
2023/02/14 07:58:21;;;;;;;15.05;5.10;;;5.60;99.90;;;;;;4913743;29;20242;-69
2023/02/14 08:00:47;;;;;;;6.38;5.47;;;5.60;99.90;;;;;;4909555;29;20233;-68
2023/02/14 08:03:15;;;;;;;14.57;8.05;;;5.60;99.90;;;;;;4918114;29;20247;-68
2023/02/14 08:05:42;;;;;;;7.95;3.97;;;5.70;99.90;;;;;;4920621;29;20206;-68
2023/02/14 08:08:09;;;;;;;6.10;4.55;;;5.70;99.90;;;;;;4914394;29;20212;-69
2023/02/14 08:10:37;;;;;;;10.55;5.22;;;5.80;99.90;;;;;;4918322;29;20340;-68
2023/02/14 08:13:03;;;;;;;8.52;5.00;;;5.80;99.90;;;;;;4911797;29;20276;-68
2023/02/14 08:18:17;;;;;;;7.88;5.38;;;6.10;99.90;;;;;;4916925;29;20303;-68
2023/02/14 08:20:44;;;;;;;11.85;6.90;;;6.50;99.90;;;;;;4918518;29;20271;-68
2023/02/14 08:23:11;;;;;;;6.00;5.47;;;6.70;99.90;;;;;;4920397;29;20293;-69
2023/02/14 08:25:39;;;;;;;11.73;7.80;;;6.70;99.90;;;;;;4921497;29;20208;-70
2023/02/14 08:28:07;;;;;;;9.93;5.68;;;7.00;99.90;;;;;;4913006;29;20216;-70
2023/02/14 08:30:35;;;;;;;9.73;6.15;;;7.20;99.90;;;;;;4916941;29;20890;-69
2023/02/14 08:33:02;;;;;;;12.38;6.72;;;7.10;99.90;;;;;;4917063;29;20219;-69
2023/02/14 08:35:29;;;;;;;14.25;7.00;;;6.90;99.90;;;;;;4919629;29;20208;-69
2023/02/14 08:37:55;;;;;;;9.65;6.70;;;6.80;99.90;;;;;;4914927;29;22089;-69
2023/02/14 08:40:22;;;;;;;7.25;4.25;;;6.70;99.90;;;;;;4912463;29;20212;-69
2023/02/14 08:42:50;;;;;;;14.70;8.05;;;6.70;99.90;;;;;;4913151;29;20235;-70
2023/02/14 08:45:17;;;;;;;12.27;5.50;;;6.70;99.90;;;;;;4931280;29;20554;-69
2023/02/14 08:47:44;;;;;;;11.45;5.43;;;6.70;99.90;;;;;;4923247;29;20302;-68
2023/02/14 08:50:14;;;;;;;9.27;4.65;;;6.70;99.90;;;;;;4930009;29;20211;-69
2023/02/14 08:52:42;;;;;;;9.15;5.90;;;6.70;99.90;;;;;;4921719;29;20218;-68
2023/02/14 08:55:09;;;;;;;8.07;6.03;;;6.80;99.90;;;;;;4914950;29;20219;-69
2023/02/14 08:57:36;;;;;;;6.15;4.43;;;6.80;99.90;;;;;;4920759;29;20226;-70
2023/02/14 09:00:06;;;;;;;3.15;2.85;;;6.90;99.90;;;;;;4930552;29;20637;-69
2023/02/14 09:02:33;;;;;;;14.13;8.10;;;6.90;99.90;;;;;;4923203;29;20244;-70
2023/02/14 09:05:00;;;;;;;5.88;4.90;;;7.00;99.90;;;;;;4916091;29;20633;-69
2023/02/14 09:07:27;;;;;;;3.15;2.70;;;7.10;99.90;;;;;;4921516;29;20208;-69
2023/02/14 09:09:53;;;;;;;11.98;5.47;;;7.10;99.90;;;;;;4924583;29;20291;-69
2023/02/14 09:12:20;;;;;;;11.77;6.00;;;7.10;99.90;;;;;;4914622;29;20251;-68
2023/02/14 09:14:47;;;;;;;3.47;3.17;;;7.20;99.90;;;;;;4924507;29;20211;-69
2023/02/14 09:17:15;;;;;;;6.63;6.18;;;7.30;99.90;;;;;;4916249;29;20223;-69
2023/02/14 09:19:42;;;;;;;9.00;2.45;;;7.40;99.90;;;;;;4919723;29;20222;-69
2023/02/14 09:22:10;;;;;;;4.50;4.10;;;7.40;99.90;;;;;;4924546;29;20228;-68
2023/02/14 09:24:38;;;;;;;4.25;3.65;;;7.50;99.90;;;;;;4914694;29;20840;-69
2023/02/14 09:27:06;;;;;;;10.13;6.03;;;7.50;99.90;;;;;;4908670;29;20223;-69
2023/02/14 09:29:33;;;;;;;5.85;4.28;;;7.60;99.90;;;;;;4911415;29;20219;-69
2023/02/14 09:32:01;;;;;;;7.05;5.25;;;7.60;99.90;;;;;;4919535;29;20231;-69
2023/02/14 09:37:15;;;;;;;8.90;4.53;;;7.70;99.90;;;;;;4902691;29;20223;-68
2023/02/14 09:39:41;;;;;;;10.35;4.47;;;7.70;99.90;;;;;;4907386;29;20239;-69
2023/02/14 09:42:31;;;;;;;1.85;1.75;;;7.80;99.90;;;;;;4912404;29;20259;-69
2023/02/14 09:45:04;;;;;;;6.75;4.82;;;7.80;99.90;;;;;;4917261;29;20215;-68
2023/02/14 09:47:39;;;;;;;7.45;3.50;;;7.80;99.90;;;;;;4911933;29;20574;-69
2023/02/14 09:50:17;;;;;;;7.10;4.25;;;7.90;99.90;;;;;;4923410;29;20207;-70
2023/02/14 09:52:46;;;;;;;4.80;3.65;;;8.00;99.90;;;;;;4924218;29;20891;-68
2023/02/14 09:55:16;;;;;;;3.47;2.88;;;8.00;99.90;;;;;;4919570;29;20675;-68
2023/02/14 09:57:54;;;;;;;7.53;4.90;;;8.10;99.90;;;;;;4922566;29;20208;-68
2023/02/14 10:00:29;;;;;;;10.05;7.05;;;8.10;99.90;;;;;;4920162;29;20221;-68
2023/02/14 10:03:05;;;;;;;12.90;5.82;;;8.10;99.90;;;;;;4915721;29;20227;-67
2023/02/14 10:05:41;;;;;;;6.75;6.05;;;8.10;99.90;;;;;;4909553;29;20226;-68
2023/02/14 10:08:22;;;;;;;1.67;1.42;;;8.20;99.90;;;;;;4910324;29;20212;-68
2023/02/14 10:11:02;;;;;;;2.65;2.53;;;8.20;99.90;;;;;;4910962;29;20240;-69
2023/02/14 10:13:35;;;;;;;13.32;5.80;;;8.20;99.90;;;;;;4917693;29;20220;-69
2023/02/14 10:16:08;;;;;;;8.30;4.88;;;8.30;99.90;;;;;;4914877;29;20209;-69
2023/02/14 10:18:42;;;;;;;6.80;5.43;;;8.40;99.90;;;;;;4906695;29;20213;-69
2023/02/14 10:21:16;;;;;;;4.25;3.92;;;8.40;99.90;;;;;;4920802;29;20239;-68
2023/02/14 10:23:49;;;;;;;5.75;4.90;;;8.40;99.90;;;;;;4920513;29;20225;-69
2023/02/14 10:26:22;;;;;;;4.53;3.65;;;8.50;99.90;;;;;;4912680;29;20209;-70
2023/02/14 10:28:50;;;;;;;13.05;5.57;;;8.60;99.90;;;;;;4919928;29;20216;-69
2023/02/14 10:31:21;;;;;;;10.95;7.78;;;8.60;99.90;;;;;;4924237;29;20247;-70
2023/02/14 10:33:55;;;;;;;7.72;6.22;;;8.60;99.90;;;;;;4918669;29;20213;-69
2023/02/14 10:36:44;;;;;;;9.10;7.35;;;8.70;99.90;;;;;;4916671;29;20217;-69
2023/02/14 10:39:31;;;;;;;8.95;7.30;;;8.70;99.90;;;;;;4921607;29;20604;-69
2023/02/14 10:42:05;;;;;;;3.50;2.70;;;8.70;99.90;;;;;;4926114;29;20248;-69
2023/02/14 10:44:45;;;;;;;6.38;4.30;;;8.80;99.90;;;;;;4919914;29;20721;-69
2023/02/14 10:47:27;;;;;;;7.03;4.55;;;8.90;99.90;;;;;;4916025;29;20231;-69
2023/02/14 10:50:01;;;;;;;13.05;7.07;;;8.90;99.90;;;;;;4910949;29;20543;-69
2023/02/14 10:52:38;;;;;;;13.75;4.60;;;8.90;99.90;;;;;;4909294;29;20637;-69
2023/02/14 10:55:14;;;;;;;25.90;7.35;;;9.00;99.90;;;;;;4912771;29;20240;-69
2023/02/14 10:57:45;;;;;;;7.25;5.50;;;9.00;99.90;;;;;;4913296;29;20208;-69
2023/02/14 11:00:21;;;;;;;5.57;4.70;;;9.00;99.90;;;;;;4916609;29;20210;-69
2023/02/14 11:02:53;;;;;;;6.22;4.95;;;9.10;99.90;;;;;;4916689;29;20279;-69
2023/02/14 11:05:26;;;;;;;7.28;4.82;;;9.10;99.90;;;;;;4923563;29;20217;-69
2023/02/14 11:07:55;;;;;;;7.22;4.47;;;9.20;99.90;;;;;;4916519;29;20275;-68
2023/02/14 11:10:26;;;;;;;8.82;5.45;;;9.20;99.90;;;;;;4922714;29;20248;-69
2023/02/14 11:12:53;;;;;;;8.57;3.83;;;9.30;99.90;;;;;;4915937;29;20229;-69
2023/02/14 11:15:25;;;;;;;6.10;5.60;;;9.30;99.90;;;;;;4921921;29;20227;-69
2023/02/14 11:18:09;;;;;;;7.10;4.32;;;9.40;99.90;;;;;;4916409;29;20212;-69
2023/02/14 11:20:38;;;;;;;11.57;5.65;;;9.50;99.90;;;;;;4918042;29;20245;-69
2023/02/14 11:23:18;;;;;;;5.90;4.43;;;9.50;99.90;;;;;;4915095;29;20604;-68
2023/02/14 11:25:50;;;;;;;5.82;4.90;;;9.60;99.90;;;;;;4914843;29;20313;-68
2023/02/14 11:28:20;;;;;;;4.38;3.88;;;9.60;99.90;;;;;;4920829;29;20220;-69
2023/02/14 11:30:48;;;;;;;3.28;2.97;;;9.60;99.90;;;;;;4922886;29;20320;-68
2023/02/14 11:33:34;;;;;;;6.10;4.00;;;9.70;99.90;;;;;;4913101;29;20214;-68
2023/02/14 11:36:04;;;;;;;6.43;5.68;;;9.70;99.90;;;;;;4912368;29;20213;-69
2023/02/14 11:38:35;;;;;;;8.18;4.35;;;9.70;99.90;;;;;;4915675;29;20331;-69
2023/02/14 11:41:03;;;;;;;4.88;1.13;;;9.70;99.90;;;;;;4912036;29;20237;-69
2023/02/14 11:43:32;;;;;;;9.65;4.85;;;9.80;99.90;;;;;;4921104;29;20236;-69
2023/02/14 11:46:12;;;;;;;9.40;4.18;;;9.80;99.90;;;;;;4910944;29;20207;-69
2023/02/14 11:48:39;;;;;;;7.10;5.13;;;9.80;99.90;;;;;;4909779;29;20218;-70
2023/02/14 11:51:08;;;;;;;9.85;4.00;;;9.90;99.90;;;;;;4923881;29;20247;-69
2023/02/14 11:53:44;;;;;;;8.05;3.63;;;10.00;99.90;;;;;;4914860;29;20210;-68
2023/02/14 11:56:12;;;;;;;7.03;4.38;;;10.00;99.90;;;;;;4917953;29;20217;-69
2023/02/14 11:58:45;;;;;;;9.10;3.60;;;10.10;99.90;;;;;;4914480;29;20216;-69
2023/02/14 12:01:13;;;;;;;7.80;4.10;;;10.10;99.90;;;;;;4914648;29;20245;-69
2023/02/14 12:03:47;;;;;;;3.63;2.45;;;10.10;99.90;;;;;;4914552;29;20355;-69
2023/02/14 12:06:23;;;;;;;9.10;4.90;;;10.20;99.90;;;;;;4914614;29;20666;-69
2023/02/14 12:08:52;;;;;;;7.05;5.95;;;10.30;99.90;;;;;;4923765;29;20209;-70
2023/02/14 12:11:21;;;;;;;9.05;5.88;;;10.30;99.90;;;;;;4914708;29;20234;-69
2023/02/14 12:13:53;;;;;;;10.55;5.18;;;10.30;99.90;;;;;;4914665;29;20351;-67
2023/02/14 12:16:24;;;;;;;4.07;3.78;;;10.30;99.90;;;;;;4915290;29;20222;-68
2023/02/14 12:18:56;;;;;;;8.50;4.43;;;10.30;99.90;;;;;;4923028;29;20213;-69
2023/02/14 12:21:37;;;;;;;13.75;6.10;;;10.40;99.90;;;;;;4914774;29;20238;-69
2023/02/14 12:24:15;;;;;;;6.43;5.30;;;10.40;99.90;;;;;;4919590;29;20223;-69
2023/02/14 12:26:46;;;;;;;6.50;5.70;;;10.50;99.90;;;;;;4916847;29;20223;-69
2023/02/14 12:29:19;;;;;;;5.53;3.28;;;10.50;99.90;;;;;;4915717;29;20360;-68
2023/02/14 12:31:49;;;;;;;9.73;6.03;;;10.50;99.90;;;;;;4924505;29;20239;-69
2023/02/14 12:34:17;;;;;;;4.60;4.00;;;10.50;99.90;;;;;;4932780;29;20227;-69
2023/02/14 12:37:13;;;;;;;4.95;4.22;;;10.60;99.90;;;;;;4922841;29;20235;-69
2023/02/14 12:39:55;;;;;;;9.20;4.82;;;10.50;99.90;;;;;;4927326;29;20752;-70
2023/02/14 12:42:39;;;;;;;15.77;8.88;;;10.60;99.90;;;;;;4933768;29;20242;-68
2023/02/14 12:45:14;;;;;;;7.45;5.05;;;10.60;99.90;;;;;;4925547;29;20242;-69
2023/02/14 12:47:52;;;;;;;3.55;3.20;;;10.60;99.90;;;;;;4922182;29;20216;-69
2023/02/14 12:50:28;;;;;;;8.88;3.70;;;10.60;99.90;;;;;;4928497;29;20199;-69
2023/02/14 12:53:16;;;;;;;11.77;5.05;;;10.70;99.90;;;;;;4918704;29;20220;-68
2023/02/14 12:55:54;;;;;;;7.28;3.78;;;10.70;99.90;;;;;;4882425;29;20223;-69
2023/02/14 12:58:37;;;;;;;6.95;4.90;;;10.70;99.90;;;;;;4917492;29;20740;-69
2023/02/14 13:01:30;;;;;;;3.50;3.15;;;10.70;99.90;;;;;;4902045;29;20239;-69
2023/02/14 13:04:20;;;;;;;6.07;3.63;;;10.70;99.90;;;;;;4912737;29;20748;-68
2023/02/14 13:06:54;;;;;;;3.28;2.38;;;10.70;99.90;;;;;;4922339;29;20215;-68
2023/02/14 13:09:33;;;;;;;6.40;4.30;;;10.70;99.90;;;;;;4914312;29;20221;-70
2023/02/14 13:12:12;;;;;;;4.15;3.85;;;10.80;99.90;;;;;;4913035;29;20232;-68
2023/02/14 13:14:56;;;;;;;7.05;5.28;;;10.80;99.90;;;;;;4919316;29;20208;-69
2023/02/14 13:17:33;;;;;;;5.78;3.78;;;10.80;99.90;;;;;;4924151;29;20295;-69
2023/02/14 13:20:12;;;;;;;3.33;3.13;;;10.80;99.90;;;;;;4914643;29;20208;-69
2023/02/14 13:22:41;;;;;;;3.65;2.97;;;10.80;99.90;;;;;;4915389;29;20228;-69
2023/02/14 13:25:21;;;;;;;3.20;1.42;;;10.80;99.90;;;;;;4924865;29;20289;-69
2023/02/14 13:27:50;;;;;;;4.75;4.20;;;10.90;99.90;;;;;;4927224;29;20606;-69
2023/02/14 13:30:24;;;;;;;7.93;4.82;;;10.90;99.90;;;;;;4920405;29;20231;-69
2023/02/14 13:32:54;;;;;;;8.15;4.80;;;10.90;99.90;;;;;;4914815;29;20221;-69
2023/02/14 13:35:23;;;;;;;4.80;4.40;;;10.90;99.90;;;;;;4924010;29;20209;-69
2023/02/14 13:37:55;;;;;;;6.03;5.45;;;10.90;99.90;;;;;;4924601;29;20578;-68
2023/02/14 13:40:24;;;;;;;5.90;5.40;;;10.90;99.90;;;;;;4924058;29;20672;-69
2023/02/14 13:42:55;;;;;;;4.22;3.80;;;11.00;99.90;;;;;;4919317;29;20211;-68
2023/02/14 13:45:53;;;;;;;12.85;4.63;;;11.00;99.90;;;;;;4917167;29;20239;-68
2023/02/14 13:48:22;;;;;;;5.28;4.10;;;10.90;99.90;;;;;;4854742;29;20235;-68
2023/02/14 13:50:54;;;;;;;8.80;5.82;;;11.00;99.90;;;;;;4907381;29;20661;-68
2023/02/14 13:53:39;;;;;;;2.50;2.38;;;11.00;99.90;;;;;;4927176;29;20213;-68
2023/02/14 13:56:34;;;;;;;5.38;4.78;;;11.00;99.90;;;;;;4925186;29;20572;-69
2023/02/14 13:59:04;;;;;;;4.95;4.00;;;11.00;99.90;;;;;;4933020;29;20208;-68
2023/02/14 14:01:37;;;;;;;5.13;4.20;;;11.00;99.90;;;;;;4912791;29;20290;-68
2023/02/14 14:04:27;;;;;;;8.57;5.90;;;11.00;99.90;;;;;;4913650;29;20319;-68
2023/02/14 14:07:28;;;;;;;8.82;3.60;;;11.00;99.90;;;;;;4921829;29;20745;-69
2023/02/14 14:09:58;;;;;;;7.93;4.03;;;11.00;99.90;;;;;;4866658;29;20217;-68
2023/02/14 14:12:43;;;;;;;0.55;0.55;;;11.00;99.90;;;;;;4910410;29;20302;-69
2023/02/14 14:15:19;;;;;;;10.18;3.30;;;11.10;99.90;;;;;;4920370;29;20740;-69
2023/02/14 14:18:30;;;;;;;4.05;3.75;;;11.10;99.90;;;;;;4936315;29;20232;-69
2023/02/14 14:20:58;;;;;;;6.57;4.13;;;11.00;99.90;;;;;;4910156;29;20236;-68
2023/02/14 14:23:33;;;;;;;6.22;3.85;;;11.00;99.90;;;;;;4918895;29;20673;-68
2023/02/14 14:26:00;;;;;;;9.30;5.38;;;11.10;99.90;;;;;;4907965;29;20225;-69
2023/02/14 14:28:30;;;;;;;4.95;3.45;;;11.00;99.90;;;;;;4919101;29;20238;-69
2023/02/14 14:30:57;;;;;;;13.10;7.97;;;11.00;99.90;;;;;;4920265;29;20231;-68
2023/02/14 14:33:26;;;;;;;11.88;4.60;;;11.00;99.90;;;;;;4912219;29;20216;-69
2023/02/14 14:35:54;;;;;;;7.70;4.30;;;10.90;99.90;;;;;;4921872;29;20317;-69
2023/02/14 14:38:22;;;;;;;6.97;4.40;;;10.90;99.90;;;;;;4920248;29;20216;-68
2023/02/14 14:40:50;;;;;;;6.88;5.63;;;10.90;99.90;;;;;;4924459;29;20232;-69
2023/02/14 14:43:25;;;;;;;12.05;6.05;;;10.90;99.90;;;;;;4924075;29;20464;-67
2023/02/14 14:45:54;;;;;;;11.57;4.78;;;11.00;99.90;;;;;;4923497;29;20234;-67
2023/02/14 14:48:28;;;;;;;5.25;3.53;;;10.90;99.90;;;;;;4925331;29;20219;-68
2023/02/14 14:50:56;;;;;;;11.88;5.70;;;11.00;99.90;;;;;;4918738;29;20307;-68
2023/02/14 14:53:28;;;;;;;8.57;4.50;;;11.00;99.90;;;;;;4928262;29;20781;-68
2023/02/14 14:55:56;;;;;;;9.95;3.33;;;10.90;99.90;;;;;;4927190;29;20381;-70
2023/02/14 14:58:39;;;;;;;5.60;4.68;;;10.90;99.90;;;;;;4929904;29;20220;-68
2023/02/14 15:01:11;;;;;;;8.88;4.85;;;10.90;99.90;;;;;;4910355;29;20254;-68
2023/02/14 15:03:39;;;;;;;4.95;4.50;;;10.90;99.90;;;;;;4921063;29;20207;-68
2023/02/14 15:06:14;;;;;;;9.20;5.60;;;10.80;99.90;;;;;;4923155;29;20236;-68
2023/02/14 15:08:42;;;;;;;10.38;5.50;;;10.80;99.90;;;;;;4923580;29;20213;-68
2023/02/14 15:11:12;;;;;;;7.38;3.70;;;10.80;99.90;;;;;;4930359;29;20223;-68
2023/02/14 15:13:52;;;;;;;9.07;5.13;;;10.80;99.90;;;;;;4913195;29;20207;-69
2023/02/14 15:16:25;;;;;;;14.50;5.55;;;10.70;99.90;;;;;;4918887;29;20712;-68
2023/02/14 15:18:56;;;;;;;8.68;5.05;;;10.70;99.90;;;;;;4918817;29;20219;-69
2023/02/14 15:21:22;;;;;;;6.72;6.10;;;10.70;99.90;;;;;;4923121;29;20234;-69
2023/02/14 15:23:52;;;;;;;10.55;2.75;;;10.70;99.90;;;;;;4918465;29;20241;-69
2023/02/14 15:26:24;;;;;;;4.15;2.92;;;10.70;99.90;;;;;;4922573;29;20227;-69
2023/02/14 15:28:57;;;;;;;9.93;5.45;;;10.60;99.90;;;;;;4914119;29;20222;-70
2023/02/14 15:31:29;;;;;;;8.48;5.50;;;10.60;99.90;;;;;;4922044;29;20238;-69
2023/02/14 15:33:58;;;;;;;6.68;4.00;;;10.60;99.90;;;;;;4915627;29;20853;-69
2023/02/14 15:36:26;;;;;;;8.30;4.80;;;10.60;99.90;;;;;;4910767;29;20685;-70
2023/02/14 15:38:56;;;;;;;8.73;7.07;;;10.50;99.90;;;;;;4913399;29;20735;-68
2023/02/14 15:41:25;;;;;;;7.97;6.75;;;10.40;99.90;;;;;;4922358;29;20334;-68
2023/02/14 15:43:53;;;;;;;5.13;4.72;;;10.40;99.90;;;;;;4919101;29;20679;-68
2023/02/14 15:46:30;;;;;;;3.53;3.03;;;10.30;99.90;;;;;;4925680;29;20226;-68
2023/02/14 15:49:00;;;;;;;9.90;5.18;;;10.30;99.90;;;;;;4915991;29;20318;-68
2023/02/14 15:51:29;;;;;;;3.85;3.08;;;10.20;99.90;;;;;;4914813;29;20311;-69
2023/02/14 15:53:59;;;;;;;8.50;4.45;;;10.10;99.90;;;;;;4920305;29;20208;-68
2023/02/14 15:56:28;;;;;;;11.32;5.75;;;10.20;99.90;;;;;;4916796;29;20210;-69
2023/02/14 15:59:00;;;;;;;9.20;4.45;;;10.10;99.90;;;;;;4914054;29;20257;-69
2023/02/14 16:01:27;;;;;;;6.60;4.35;;;10.10;99.90;;;;;;4913633;29;20245;-69
2023/02/14 16:03:57;;;;;;;4.75;3.72;;;10.10;99.90;;;;;;4910529;29;20212;-69
2023/02/14 16:06:38;;;;;;;9.15;6.10;;;10.00;99.90;;;;;;4915883;29;20702;-68
2023/02/14 16:09:23;;;;;;;5.07;2.88;;;9.90;99.90;;;;;;4908645;29;20205;-68
2023/02/14 16:11:50;;;;;;;6.53;5.10;;;9.90;99.90;;;;;;4911561;29;20247;-68
2023/02/14 16:14:27;;;;;;;4.22;3.53;;;9.80;99.90;;;;;;4920554;29;20220;-68
2023/02/14 16:16:57;;;;;;;6.13;3.90;;;9.80;99.90;;;;;;4912291;29;20674;-68
2023/02/14 16:19:40;;;;;;;7.78;4.00;;;9.70;99.90;;;;;;4908168;29;21328;-68
2023/02/14 16:22:09;;;;;;;7.47;4.75;;;9.60;99.90;;;;;;4914455;29;20342;-68
2023/02/14 16:24:37;;;;;;;7.13;3.67;;;9.60;99.90;;;;;;4922365;29;20222;-68
2023/02/14 16:27:06;;;;;;;12.57;4.43;;;9.50;99.90;;;;;;4911270;29;20222;-70
2023/02/14 16:29:34;;;;;;;8.00;6.13;;;9.50;99.90;;;;;;4916523;29;20213;-68
2023/02/14 16:32:10;;;;;;;6.88;3.65;;;9.50;99.90;;;;;;4930865;29;20242;-67
2023/02/14 16:34:37;;;;;;;6.97;4.68;;;9.40;99.90;;;;;;4932320;29;20220;-68
2023/02/14 16:37:08;;;;;;;6.63;4.38;;;9.40;99.90;;;;;;4918599;29;20320;-67
2023/02/14 16:39:38;;;;;;;8.93;6.28;;;9.30;99.90;;;;;;4914867;29;20221;-68
2023/02/14 16:42:05;;;;;;;6.22;2.88;;;9.30;99.90;;;;;;4911293;29;20236;-68
2023/02/14 16:44:32;;;;;;;11.02;4.80;;;9.20;99.90;;;;;;4908975;29;20217;-67
2023/02/14 16:47:03;;;;;;;6.97;4.10;;;9.20;99.90;;;;;;4907352;29;20219;-68
2023/02/14 16:49:30;;;;;;;3.80;3.50;;;9.10;99.90;;;;;;4910365;29;20209;-67
2023/02/14 16:51:57;;;;;;;6.22;4.78;;;9.00;99.90;;;;;;4908798;29;20238;-67
2023/02/14 16:54:26;;;;;;;4.50;4.10;;;9.00;99.90;;;;;;4917169;29;20211;-68
2023/02/14 16:56:58;;;;;;;7.70;4.90;;;8.90;99.90;;;;;;4911860;29;20202;-68
2023/02/14 16:59:24;;;;;;;12.35;5.32;;;8.90;99.90;;;;;;4915654;29;20296;-68
2023/02/14 17:01:51;;;;;;;12.75;6.25;;;8.80;99.90;;;;;;4914518;29;20241;-68
2023/02/14 17:04:18;;;;;;;8.43;5.70;;;8.80;99.90;;;;;;4917809;29;20217;-68
2023/02/14 17:06:51;;;;;;;5.18;4.18;;;8.70;99.90;;;;;;4924279;29;20237;-68
2023/02/14 17:09:23;;;;;;;11.00;4.60;;;8.70;99.90;;;;;;4910854;29;20224;-68
2023/02/14 17:11:52;;;;;;;7.28;4.50;;;8.60;99.90;;;;;;4912613;29;20232;-68
2023/02/14 17:14:23;;;;;;;5.88;5.00;;;8.50;99.90;;;;;;4911723;29;20242;-67
2023/02/14 17:16:50;;;;;;;8.27;6.30;;;8.40;99.90;;;;;;4911848;29;20205;-69
2023/02/14 17:19:17;;;;;;;5.03;4.53;;;8.40;99.90;;;;;;4908507;29;20217;-69
2023/02/14 17:21:44;;;;;;;4.28;3.88;;;8.40;99.90;;;;;;4907476;29;20232;-68
2023/02/14 17:24:11;;;;;;;4.18;3.88;;;8.30;99.90;;;;;;4909005;29;20209;-68
2023/02/14 17:26:38;;;;;;;10.55;5.13;;;8.20;99.90;;;;;;4908899;29;20232;-69
2023/02/14 17:29:05;;;;;;;4.07;3.72;;;8.10;99.90;;;;;;4908540;29;20221;-69
2023/02/14 17:31:33;;;;;;;9.18;5.43;;;8.10;99.90;;;;;;4908593;29;20281;-69
2023/02/14 17:34:00;;;;;;;5.78;4.68;;;8.00;99.90;;;;;;4909514;29;20531;-68
2023/02/14 17:36:27;;;;;;;12.65;7.05;;;8.00;99.90;;;;;;4906371;29;20208;-67
2023/02/14 17:38:54;;;;;;;5.70;5.20;;;7.90;99.90;;;;;;4921705;29;20259;-68
2023/02/14 17:41:22;;;;;;;8.52;6.85;;;7.90;99.90;;;;;;4906808;29;20256;-68
2023/02/14 17:43:50;;;;;;;11.88;5.82;;;7.80;99.90;;;;;;4906163;29;20605;-67
2023/02/14 17:46:18;;;;;;;7.53;6.72;;;7.80;99.90;;;;;;4919328;29;20749;-67
2023/02/14 17:48:47;;;;;;;16.80;10.68;;;7.70;99.90;;;;;;4923882;29;20216;-68
2023/02/14 17:51:15;;;;;;;18.08;7.25;;;7.70;99.90;;;;;;4911576;29;20255;-67
2023/02/14 17:53:42;;;;;;;9.38;5.00;;;7.60;99.90;;;;;;4907310;29;20220;-67
2023/02/14 17:56:12;;;;;;;7.65;5.10;;;7.50;99.90;;;;;;4906179;29;20214;-68
2023/02/14 17:58:39;;;;;;;13.40;7.82;;;7.50;99.90;;;;;;4907124;29;20209;-67
2023/02/14 18:01:08;;;;;;;11.88;5.80;;;7.50;99.90;;;;;;4906881;29;20773;-68
2023/02/14 18:03:35;;;;;;;7.43;6.07;;;7.40;99.90;;;;;;4907632;29;20227;-68
2023/02/14 18:06:04;;;;;;;16.67;7.60;;;7.40;99.90;;;;;;4914244;29;20277;-68
2023/02/14 18:08:32;;;;;;;10.32;5.85;;;7.30;99.90;;;;;;4905975;29;20212;-69
2023/02/14 18:10:59;;;;;;;18.95;6.78;;;7.30;99.90;;;;;;4906259;29;20246;-68
2023/02/14 18:13:26;;;;;;;14.90;8.60;;;7.20;99.90;;;;;;4906104;29;20209;-68
2023/02/14 18:15:53;;;;;;;18.85;10.25;;;7.20;99.90;;;;;;4905274;29;20827;-69